sensor_id;sensor_type;location;lat;lon;timestamp;pressure;altitude;pressure_sealevel;temperature;humidity
43703;BME280;29304;56.146;40.396;2022-07-09T00:00:00;99756.00;;;20.10;100.00
43703;BME280;29304;56.146;40.396;2022-07-09T00:00:11;99762.16;;;20.10;100.00
43703;BME280;29304;56.146;40.396;2022-07-09T00:00:22;99752.38;;;20.11;100.00
43703;BME280;29304;56.146;40.396;2022-07-09T00:00:32;99749.44;;;20.04;100.00
43703;BME280;29304;56.146;40.396;2022-07-09T00:00:43;99756.84;;;20.10;100.00
43703;BME280;29304;56.146;40.396;2022-07-09T00:00:53;99757.66;;;20.11;100.00
43703;BME280;29304;56.146;40.396;2022-07-09T00:01:04;99753.50;;;20.08;100.00
43703;BME280;29304;56.146;40.396;2022-07-09T00:01:15;99754.59;;;20.06;100.00
43703;BME280;29304;56.146;40.396;2022-07-09T00:01:25;99756.81;;;20.01;100.00
43703;BME280;29304;56.146;40.396;2022-07-09T00:01:36;99756.97;;;19.99;100.00
43703;BME280;29304;56.146;40.396;2022-07-09T00:01:46;99757.78;;;20.00;100.00
43703;BME280;29304;56.146;40.396;2022-07-09T00:01:56;99756.69;;;20.02;100.00
43703;BME280;29304;56.146;40.396;2022-07-09T00:02:07;99757.50;;;20.03;100.00
43703;BME280;29304;56.146;40.396;2022-07-09T00:02:17;99753.06;;;20.03;100.00
43703;BME280;29304;56.146;40.396;2022-07-09T00:02:28;99737.41;;;19.90;100.00
43703;BME280;29304;56.146;40.396;2022-07-09T00:02:38;99754.75;;;20.04;100.00
43703;BME280;29304;56.146;40.396;2022-07-09T00:02:49;99757.94;;;19.98;100.00
43703;BME280;29304;56.146;40.396;2022-07-09T00:02:59;99761.56;;;19.97;100.00
43703;BME280;29304;56.146;40.396;2022-07-09T00:03:10;99762.28;;;19.99;100.00
43703;BME280;29304;56.146;40.396;2022-07-09T00:03:20;99755.00;;;19.91;100.00
43703;BME280;29304;56.146;40.396;2022-07-09T00:03:31;99760.72;;;19.96;100.00
43703;BME280;29304;56.146;40.396;2022-07-09T00:03:41;99759.63;;;19.99;100.00
43703;BME280;29304;56.146;40.396;2022-07-09T00:03:52;99763.94;;;20.00;100.00
43703;BME280;29304;56.146;40.396;2022-07-09T00:04:02;99751.50;;;20.01;100.00
43703;BME280;29304;56.146;40.396;2022-07-09T00:04:13;99763.53;;;20.05;100.00
43703;BME280;29304;56.146;40.396;2022-07-09T00:04:23;99759.06;;;20.05;100.00
43703;BME280;29304;56.146;40.396;2022-07-09T00:04:34;99757.25;;;20.06;100.00
43703;BME280;29304;56.146;40.396;2022-07-09T00:04:44;99763.53;;;20.05;100.00
43703;BME280;29304;56.146;40.396;2022-07-09T00:04:55;99761.72;;;20.05;100.00
43703;BME280;29304;56.146;40.396;2022-07-09T00:05:05;99758.09;;;20.06;100.00
43703;BME280;29304;56.146;40.396;2022-07-09T00:05:16;99749.56;;;20.03;100.00
43703;BME280;29304;56.146;40.396;2022-07-09T00:05:26;99763.25;;;20.08;100.00
43703;BME280;29304;56.146;40.396;2022-07-09T00:05:37;99763.25;;;20.08;100.00
43703;BME280;29304;56.146;40.396;2022-07-09T00:05:47;99757.94;;;20.08;100.00
43703;BME280;29304;56.146;40.396;2022-07-09T00:05:58;99755.03;;;20.01;100.00
43703;BME280;29304;56.146;40.396;2022-07-09T00:06:08;99765.47;;;20.03;100.00
43703;BME280;29304;56.146;40.396;2022-07-09T00:06:19;99761.56;;;19.97;100.00
43703;BME280;29304;56.146;40.396;2022-07-09T00:06:29;99755.41;;;19.96;100.00
43703;BME280;29304;56.146;40.396;2022-07-09T00:06:41;99764.06;;;19.98;100.00
43703;BME280;29304;56.146;40.396;2022-07-09T00:06:52;99758.66;;;20.00;100.00
43703;BME280;29304;56.146;40.396;2022-07-09T00:07:02;99756.81;;;20.01;100.00
43703;BME280;29304;56.146;40.396;2022-07-09T00:07:13;99759.19;;;20.04;100.00
43703;BME280;29304;56.146;40.396;2022-07-09T00:07:23;99756.53;;;20.04;100.00
43703;BME280;29304;56.146;40.396;2022-07-09T00:07:34;99749.72;;;20.01;100.00
43703;BME280;29304;56.146;40.396;2022-07-09T00:07:45;99766.16;;;20.05;100.00
43703;BME280;29304;56.146;40.396;2022-07-09T00:07:55;99751.09;;;19.95;100.00
43703;BME280;29304;56.146;40.396;2022-07-09T00:08:06;99756.13;;;19.98;100.00
43703;BME280;29304;56.146;40.396;2022-07-09T00:08:16;99758.75;;;19.98;100.00
43703;BME280;29304;56.146;40.396;2022-07-09T00:08:26;99758.66;;;20.00;100.00
43703;BME280;29304;56.146;40.396;2022-07-09T00:08:37;99761.13;;;20.02;100.00
43703;BME280;29304;56.146;40.396;2022-07-09T00:08:47;99757.78;;;20.00;100.00
43703;BME280;29304;56.146;40.396;2022-07-09T00:08:58;99761.69;;;19.95;100.00
43703;BME280;29304;56.146;40.396;2022-07-09T00:09:08;99744.09;;;19.85;100.00
43703;BME280;29304;56.146;40.396;2022-07-09T00:09:19;99748.16;;;19.89;100.00
43703;BME280;29304;56.146;40.396;2022-07-09T00:09:29;99752.91;;;19.95;100.00
43703;BME280;29304;56.146;40.396;2022-07-09T00:09:40;99762.28;;;19.99;100.00
43703;BME280;29304;56.146;40.396;2022-07-09T00:09:50;99759.47;;;20.01;100.00
43703;BME280;29304;56.146;40.396;2022-07-09T00:10:02;99758.50;;;20.02;100.00
43703;BME280;29304;56.146;40.396;2022-07-09T00:10:13;99756.69;;;20.02;100.00
43703;BME280;29304;56.146;40.396;2022-07-09T00:10:23;99761.72;;;20.05;100.00
43703;BME280;29304;56.146;40.396;2022-07-09T00:10:34;99763.53;;;20.05;100.00
43703;BME280;29304;56.146;40.396;2022-07-09T00:10:44;99754.59;;;20.06;100.00
43703;BME280;29304;56.146;40.396;2022-07-09T00:10:55;99760.75;;;20.06;100.00
43703;BME280;29304;56.146;40.396;2022-07-09T00:11:05;99759.88;;;20.06;100.00
43703;BME280;29304;56.146;40.396;2022-07-09T00:11:16;99758.91;;;20.07;100.00
43703;BME280;29304;56.146;40.396;2022-07-09T00:11:26;99760.59;;;20.08;100.00
43703;BME280;29304;56.146;40.396;2022-07-09T00:11:37;99754.59;;;20.06;100.00
43703;BME280;29304;56.146;40.396;2022-07-09T00:11:47;99754.59;;;20.06;100.00
43703;BME280;29304;56.146;40.396;2022-07-09T00:11:57;99761.72;;;20.05;100.00
43703;BME280;29304;56.146;40.396;2022-07-09T00:12:08;99755.41;;;19.96;100.00
43703;BME280;29304;56.146;40.396;2022-07-09T00:12:19;99750.34;;;19.83;100.00
43703;BME280;29304;56.146;40.396;2022-07-09T00:12:29;99760.53;;;19.88;100.00
43703;BME280;29304;56.146;40.396;2022-07-09T00:12:40;99753.47;;;19.89;100.00
43703;BME280;29304;56.146;40.396;2022-07-09T00:12:50;99758.03;;;19.87;100.00
43703;BME280;29304;56.146;40.396;2022-07-09T00:13:01;99756.34;;;19.86;100.00
43703;BME280;29304;56.146;40.396;2022-07-09T00:13:11;99754.94;;;19.81;100.00
43703;BME280;29304;56.146;40.396;2022-07-09T00:13:22;99757.06;;;19.88;100.00
43703;BME280;29304;56.146;40.396;2022-07-09T00:13:32;99763.19;;;19.88;100.00
43703;BME280;29304;56.146;40.396;2022-07-09T00:13:42;99755.97;;;19.90;100.00
43703;BME280;29304;56.146;40.396;2022-07-09T00:13:53;99759.59;;;19.89;100.00
43703;BME280;29304;56.146;40.396;2022-07-09T00:14:03;99761.22;;;19.80;100.00
43703;BME280;29304;56.146;40.396;2022-07-09T00:14:14;99756.06;;;19.79;100.00
43703;BME280;29304;56.146;40.396;2022-07-09T00:14:24;99760.84;;;19.85;100.00
43703;BME280;29304;56.146;40.396;2022-07-09T00:14:35;99758.56;;;19.80;100.00
43703;BME280;29304;56.146;40.396;2022-07-09T00:14:45;99752.41;;;19.70;100.00
43703;BME280;29304;56.146;40.396;2022-07-09T00:14:57;99758.56;;;19.71;100.00
43703;BME280;29304;56.146;40.396;2022-07-09T00:15:07;99752.56;;;19.68;100.00
43703;BME280;29304;56.146;40.396;2022-07-09T00:15:18;99760.94;;;19.74;100.00
43703;BME280;29304;56.146;40.396;2022-07-09T00:15:28;99755.50;;;19.75;100.00
43703;BME280;29304;56.146;40.396;2022-07-09T00:15:39;99758.16;;;19.75;100.00
43703;BME280;29304;56.146;40.396;2022-07-09T00:15:49;99751.31;;;19.73;100.00
43703;BME280;29304;56.146;40.396;2022-07-09T00:16:00;99757.75;;;19.80;100.00
43703;BME280;29304;56.146;40.396;2022-07-09T00:16:11;99758.72;;;19.79;100.00
43703;BME280;29304;56.146;40.396;2022-07-09T00:16:21;99756.63;;;19.73;100.00
43703;BME280;29304;56.146;40.396;2022-07-09T00:16:32;99745.88;;;19.64;100.00
43703;BME280;29304;56.146;40.396;2022-07-09T00:16:42;99756.72;;;19.61;100.00
43703;BME280;29304;56.146;40.396;2022-07-09T00:16:52;99763.56;;;19.64;100.00
43703;BME280;29304;56.146;40.396;2022-07-09T00:17:03;99765.22;;;19.65;100.00
43703;BME280;29304;56.146;40.396;2022-07-09T00:17:14;99761.06;;;19.62;100.00
43703;BME280;29304;56.146;40.396;2022-07-09T00:17:24;99765.66;;;19.60;100.00
43703;BME280;29304;56.146;40.396;2022-07-09T00:17:36;99762.56;;;19.55;100.00
43703;BME280;29304;56.146;40.396;2022-07-09T00:17:46;99756.81;;;19.50;100.00
43703;BME280;29304;56.146;40.396;2022-07-09T00:17:57;99757.69;;;19.50;100.00
43703;BME280;29304;56.146;40.396;2022-07-09T00:18:08;99762.72;;;19.53;100.00
43703;BME280;29304;56.146;40.396;2022-07-09T00:18:18;99765.63;;;19.50;100.00
43703;BME280;29304;56.146;40.396;2022-07-09T00:18:29;99753.19;;;19.41;100.00
43703;BME280;29304;56.146;40.396;2022-07-09T00:18:39;99754.59;;;19.45;100.00
43703;BME280;29304;56.146;40.396;2022-07-09T00:18:50;99763.09;;;19.49;100.00
43703;BME280;29304;56.146;40.396;2022-07-09T00:19:00;99758.66;;;19.49;100.00
43703;BME280;29304;56.146;40.396;2022-07-09T00:19:11;99768.97;;;19.52;100.00
43703;BME280;29304;56.146;40.396;2022-07-09T00:19:21;99758.09;;;19.56;100.00
43703;BME280;29304;56.146;40.396;2022-07-09T00:19:32;99765.75;;;19.59;100.00
43703;BME280;29304;56.146;40.396;2022-07-09T00:19:42;99756.72;;;19.51;100.00
43703;BME280;29304;56.146;40.396;2022-07-09T00:19:52;99761.72;;;19.54;100.00
43703;BME280;29304;56.146;40.396;2022-07-09T00:20:03;99761.72;;;19.54;100.00
43703;BME280;29304;56.146;40.396;2022-07-09T00:20:15;99764.94;;;19.58;100.00
43703;BME280;29304;56.146;40.396;2022-07-09T00:20:25;99761.16;;;19.61;100.00
43703;BME280;29304;56.146;40.396;2022-07-09T00:20:36;99762.84;;;19.62;100.00
43703;BME280;29304;56.146;40.396;2022-07-09T00:20:46;99754.34;;;19.58;100.00
43703;BME280;29304;56.146;40.396;2022-07-09T00:20:57;99766.19;;;19.64;100.00
43703;BME280;29304;56.146;40.396;2022-07-09T00:21:07;99760.78;;;19.65;100.00
43703;BME280;29304;56.146;40.396;2022-07-09T00:21:17;99761.88;;;19.63;100.00
43703;BME280;29304;56.146;40.396;2022-07-09T00:21:28;99766.47;;;19.61;100.00
43703;BME280;29304;56.146;40.396;2022-07-09T00:21:38;99762.03;;;19.61;100.00
43703;BME280;29304;56.146;40.396;2022-07-09T00:21:49;99765.38;;;19.63;100.00
43703;BME280;29304;56.146;40.396;2022-07-09T00:21:59;99765.50;;;19.62;100.00
43703;BME280;29304;56.146;40.396;2022-07-09T00:22:10;99767.31;;;19.61;100.00
43703;BME280;29304;56.146;40.396;2022-07-09T00:22:20;99740.22;;;19.48;100.00
43703;BME280;29304;56.146;40.396;2022-07-09T00:22:31;99754.78;;;19.63;100.00
43703;BME280;29304;56.146;40.396;2022-07-09T00:22:42;99764.25;;;19.66;100.00
43703;BME280;29304;56.146;40.396;2022-07-09T00:22:53;99741.94;;;19.59;100.00
43703;BME280;29304;56.146;40.396;2022-07-09T00:23:03;99760.63;;;19.57;100.00
43703;BME280;29304;56.146;40.396;2022-07-09T00:23:14;99761.84;;;19.53;100.00
43703;BME280;29304;56.146;40.396;2022-07-09T00:23:24;99762.84;;;19.52;100.00
43703;BME280;29304;56.146;40.396;2022-07-09T00:23:35;99760.44;;;19.49;100.00
43703;BME280;29304;56.146;40.396;2022-07-09T00:23:45;99763.69;;;19.52;100.00
43703;BME280;29304;56.146;40.396;2022-07-09T00:23:56;99757.25;;;19.45;100.00
43703;BME280;29304;56.146;40.396;2022-07-09T00:24:06;99763.25;;;19.47;100.00
43703;BME280;29304;56.146;40.396;2022-07-09T00:24:17;99757.81;;;19.49;100.00
43703;BME280;29304;56.146;40.396;2022-07-09T00:24:27;99765.03;;;19.47;100.00
43703;BME280;29304;56.146;40.396;2022-07-09T00:24:38;99756.28;;;19.46;100.00
43703;BME280;29304;56.146;40.396;2022-07-09T00:24:48;99761.56;;;19.46;100.00
43703;BME280;29304;56.146;40.396;2022-07-09T00:24:59;99760.59;;;19.47;100.00
43703;BME280;29304;56.146;40.396;2022-07-09T00:25:10;99759.91;;;19.45;100.00
43703;BME280;29304;56.146;40.396;2022-07-09T00:25:21;99765.31;;;19.44;100.00
43703;BME280;29304;56.146;40.396;2022-07-09T00:25:31;99759.19;;;19.43;100.00
43703;BME280;29304;56.146;40.396;2022-07-09T00:25:42;99766.16;;;19.44;100.00
43703;BME280;29304;56.146;40.396;2022-07-09T00:25:52;99751.63;;;19.38;100.00
43703;BME280;29304;56.146;40.396;2022-07-09T00:26:03;99767.13;;;19.43;100.00
43703;BME280;29304;56.146;40.396;2022-07-09T00:26:13;99765.19;;;19.45;100.00
43703;BME280;29304;56.146;40.396;2022-07-09T00:26:24;99764.91;;;19.48;100.00
43703;BME280;29304;56.146;40.396;2022-07-09T00:26:34;99765.63;;;19.50;100.00
43703;BME280;29304;56.146;40.396;2022-07-09T00:26:45;99737.69;;;19.36;100.00
43703;BME280;29304;56.146;40.396;2022-07-09T00:26:55;99768.56;;;19.57;100.00
43703;BME280;29304;56.146;40.396;2022-07-09T00:27:06;99759.34;;;19.51;100.00
43703;BME280;29304;56.146;40.396;2022-07-09T00:27:16;99771.06;;;19.59;100.00
43703;BME280;29304;56.146;40.396;2022-07-09T00:27:27;99768.56;;;19.57;100.00
43703;BME280;29304;56.146;40.396;2022-07-09T00:27:37;99764.78;;;19.60;100.00
43703;BME280;29304;56.146;40.396;2022-07-09T00:27:48;99762.16;;;19.60;100.00
43703;BME280;29304;56.146;40.396;2022-07-09T00:27:58;99770.34;;;19.57;100.00
43703;BME280;29304;56.146;40.396;2022-07-09T00:28:08;99769.28;;;19.59;100.00
43703;BME280;29304;56.146;40.396;2022-07-09T00:28:19;99771.91;;;19.59;100.00
43703;BME280;29304;56.146;40.396;2022-07-09T00:28:29;99770.94;;;19.60;100.00
43703;BME280;29304;56.146;40.396;2022-07-09T00:28:40;99762.00;;;19.51;100.00
43703;BME280;29304;56.146;40.396;2022-07-09T00:28:50;99772.88;;;19.58;100.00
43703;BME280;29304;56.146;40.396;2022-07-09T00:29:01;99773.00;;;19.57;100.00
43703;BME280;29304;56.146;40.396;2022-07-09T00:29:11;99779.00;;;19.59;100.00
43703;BME280;29304;56.146;40.396;2022-07-09T00:29:22;99761.03;;;19.52;100.00
43703;BME280;29304;56.146;40.396;2022-07-09T00:29:32;99760.88;;;19.54;100.00
43703;BME280;29304;56.146;40.396;2022-07-09T00:29:43;99773.44;;;19.62;100.00
43703;BME280;29304;56.146;40.396;2022-07-09T00:29:53;99774.28;;;19.62;100.00
43703;BME280;29304;56.146;40.396;2022-07-09T00:30:04;99777.66;;;19.64;100.00
43703;BME280;29304;56.146;40.396;2022-07-09T00:30:14;99779.44;;;19.64;100.00
43703;BME280;29304;56.146;40.396;2022-07-09T00:30:25;99776.69;;;19.65;100.00
43703;BME280;29304;56.146;40.396;2022-07-09T00:30:36;99766.47;;;19.61;100.00
43703;BME280;29304;56.146;40.396;2022-07-09T00:30:46;99774.84;;;19.66;100.00
43703;BME280;29304;56.146;40.396;2022-07-09T00:30:57;99772.09;;;19.67;100.00
43703;BME280;29304;56.146;40.396;2022-07-09T00:31:07;99772.75;;;19.60;100.00
43703;BME280;29304;56.146;40.396;2022-07-09T00:31:17;99779.88;;;19.59;100.00
43703;BME280;29304;56.146;40.396;2022-07-09T00:31:28;99774.56;;;19.59;100.00
43703;BME280;29304;56.146;40.396;2022-07-09T00:31:38;99777.22;;;19.59;100.00
43703;BME280;29304;56.146;40.396;2022-07-09T00:31:49;99776.50;;;19.57;100.00
43703;BME280;29304;56.146;40.396;2022-07-09T00:31:59;99776.94;;;19.52;100.00
43703;BME280;29304;56.146;40.396;2022-07-09T00:32:10;99773.44;;;19.52;100.00
43703;BME280;29304;56.146;40.396;2022-07-09T00:32:20;99779.00;;;19.49;100.00
43703;BME280;29304;56.146;40.396;2022-07-09T00:32:31;99769.25;;;19.49;100.00
43703;BME280;29304;56.146;40.396;2022-07-09T00:32:41;99770.50;;;19.45;100.00
43703;BME280;29304;56.146;40.396;2022-07-09T00:32:52;99775.19;;;19.42;100.00
43703;BME280;29304;56.146;40.396;2022-07-09T00:33:02;99769.34;;;19.38;100.00
43703;BME280;29304;56.146;40.396;2022-07-09T00:33:13;99776.75;;;19.44;100.00
43703;BME280;29304;56.146;40.396;2022-07-09T00:33:23;99776.50;;;19.47;100.00
43703;BME280;29304;56.146;40.396;2022-07-09T00:33:33;99769.25;;;19.49;100.00
43703;BME280;29304;56.146;40.396;2022-07-09T00:33:44;99768.41;;;19.49;100.00
43703;BME280;29304;56.146;40.396;2022-07-09T00:33:54;99776.59;;;19.46;100.00
43703;BME280;29304;56.146;40.396;2022-07-09T00:34:05;99771.28;;;19.36;100.00
43703;BME280;29304;56.146;40.396;2022-07-09T00:34:15;99773.78;;;19.37;100.00
43703;BME280;29304;56.146;40.396;2022-07-09T00:34:26;99775.03;;;19.33;100.00
43703;BME280;29304;56.146;40.396;2022-07-09T00:34:36;99769.72;;;19.33;100.00
43703;BME280;29304;56.146;40.396;2022-07-09T00:34:47;99772.09;;;19.36;100.00
43703;BME280;29304;56.146;40.396;2022-07-09T00:34:57;99775.88;;;19.34;100.00
43703;BME280;29304;56.146;40.396;2022-07-09T00:35:08;99773.94;;;19.36;100.00
43703;BME280;29304;56.146;40.396;2022-07-09T00:35:18;99775.59;;;19.37;100.00
43703;BME280;29304;56.146;40.396;2022-07-09T00:35:29;99774.63;;;19.38;100.00
43703;BME280;29304;56.146;40.396;2022-07-09T00:35:40;99768.22;;;19.41;100.00
43703;BME280;29304;56.146;40.396;2022-07-09T00:35:50;99775.91;;;19.44;100.00
43703;BME280;29304;56.146;40.396;2022-07-09T00:36:01;99774.81;;;19.46;100.00
43703;BME280;29304;56.146;40.396;2022-07-09T00:36:11;99770.34;;;19.47;100.00
43703;BME280;29304;56.146;40.396;2022-07-09T00:36:21;99764.34;;;19.45;100.00
43703;BME280;29304;56.146;40.396;2022-07-09T00:36:32;99775.63;;;19.47;100.00
43703;BME280;29304;56.146;40.396;2022-07-09T00:36:42;99775.63;;;19.47;100.00
43703;BME280;29304;56.146;40.396;2022-07-09T00:36:53;99773.00;;;19.47;100.00
43703;BME280;29304;56.146;40.396;2022-07-09T00:37:03;99774.53;;;19.49;100.00
43703;BME280;29304;56.146;40.396;2022-07-09T00:37:15;99774.53;;;19.49;100.00
43703;BME280;29304;56.146;40.396;2022-07-09T00:37:25;99767.69;;;19.47;100.00
43703;BME280;29304;56.146;40.396;2022-07-09T00:37:36;99779.84;;;19.49;100.00
43703;BME280;29304;56.146;40.396;2022-07-09T00:37:46;99775.91;;;19.44;100.00
43703;BME280;29304;56.146;40.396;2022-07-09T00:37:57;99763.91;;;19.39;100.00
43703;BME280;29304;56.146;40.396;2022-07-09T00:38:07;99774.38;;;19.41;100.00
43703;BME280;29304;56.146;40.396;2022-07-09T00:38:18;99762.63;;;19.34;100.00
43703;BME280;29304;56.146;40.396;2022-07-09T00:38:28;99773.53;;;19.41;100.00
43703;BME280;29304;56.146;40.396;2022-07-09T00:38:39;99771.13;;;19.37;100.00
43703;BME280;29304;56.146;40.396;2022-07-09T00:38:49;99771.41;;;19.34;100.00
43703;BME280;29304;56.146;40.396;2022-07-09T00:38:59;99776.31;;;19.39;100.00
43703;BME280;29304;56.146;40.396;2022-07-09T00:39:10;99768.63;;;19.36;100.00
43703;BME280;29304;56.146;40.396;2022-07-09T00:39:20;99775.91;;;19.44;100.00
43703;BME280;29304;56.146;40.396;2022-07-09T00:39:31;99768.09;;;19.42;100.00
43703;BME280;29304;56.146;40.396;2022-07-09T00:39:41;99769.91;;;19.42;100.00
43703;BME280;29304;56.146;40.396;2022-07-09T00:39:51;99778.09;;;19.38;100.00
43703;BME280;29304;56.146;40.396;2022-07-09T00:40:02;99757.59;;;19.31;100.00
43703;BME280;29304;56.146;40.396;2022-07-09T00:40:13;99771.56;;;19.43;100.00
43703;BME280;29304;56.146;40.396;2022-07-09T00:40:23;99769.63;;;19.45;100.00
43703;BME280;29304;56.146;40.396;2022-07-09T00:40:34;99775.63;;;19.47;100.00
43703;BME280;29304;56.146;40.396;2022-07-09T00:40:44;99769.38;;;19.48;100.00
43703;BME280;29304;56.146;40.396;2022-07-09T00:40:55;99773.84;;;19.47;100.00
43703;BME280;29304;56.146;40.396;2022-07-09T00:41:05;99766.00;;;19.46;100.00
43703;BME280;29304;56.146;40.396;2022-07-09T00:41:16;99759.00;;;19.35;100.00
43703;BME280;29304;56.146;40.396;2022-07-09T00:41:26;99761.22;;;19.30;100.00
43703;BME280;29304;56.146;40.396;2022-07-09T00:41:36;99773.94;;;19.36;100.00
43703;BME280;29304;56.146;40.396;2022-07-09T00:41:47;99767.78;;;19.35;100.00
43703;BME280;29304;56.146;40.396;2022-07-09T00:42:08;99770.31;;;19.37;100.00
43703;BME280;29304;56.146;40.396;2022-07-09T00:42:19;99768.94;;;19.43;100.00
43703;BME280;29304;56.146;40.396;2022-07-09T00:42:29;99772.28;;;19.45;100.00
43703;BME280;29304;56.146;40.396;2022-07-09T00:42:40;99763.63;;;19.43;100.00
43703;BME280;29304;56.146;40.396;2022-07-09T00:42:50;99767.69;;;19.47;100.00
43703;BME280;29304;56.146;40.396;2022-07-09T00:43:00;99770.94;;;19.50;100.00
43703;BME280;29304;56.146;40.396;2022-07-09T00:43:21;99772.31;;;19.54;100.00
43703;BME280;29304;56.146;40.396;2022-07-09T00:43:32;99765.63;;;19.50;100.00
43703;BME280;29304;56.146;40.396;2022-07-09T00:43:50;99778.72;;;19.52;100.00
43703;BME280;29304;56.146;40.396;2022-07-09T00:44:01;99773.97;;;19.46;100.00
43703;BME280;29304;56.146;40.396;2022-07-09T00:44:11;99769.06;;;19.41;100.00
43703;BME280;29304;56.146;40.396;2022-07-09T00:44:21;99763.19;;;19.37;100.00
43703;BME280;29304;56.146;40.396;2022-07-09T00:44:32;99771.56;;;19.43;100.00
43703;BME280;29304;56.146;40.396;2022-07-09T00:44:43;99771.31;;;19.46;100.00
43703;BME280;29304;56.146;40.396;2022-07-09T00:44:53;99772.56;;;19.42;100.00
43703;BME280;29304;56.146;40.396;2022-07-09T00:45:04;99764.03;;;19.38;100.00
43703;BME280;29304;56.146;40.396;2022-07-09T00:45:15;99772.56;;;19.42;100.00
43703;BME280;29304;56.146;40.396;2022-07-09T00:45:27;99769.63;;;19.45;100.00
43703;BME280;29304;56.146;40.396;2022-07-09T00:45:38;99776.50;;;19.47;100.00
43703;BME280;29304;56.146;40.396;2022-07-09T00:45:48;99772.00;;;19.48;100.00
43703;BME280;29304;56.146;40.396;2022-07-09T00:45:59;99760.97;;;19.43;100.00
43703;BME280;29304;56.146;40.396;2022-07-09T00:46:09;99768.53;;;19.47;100.00
43703;BME280;29304;56.146;40.396;2022-07-09T00:46:20;99774.09;;;19.44;100.00
43703;BME280;29304;56.146;40.396;2022-07-09T00:46:30;99769.06;;;19.41;100.00
43703;BME280;29304;56.146;40.396;2022-07-09T00:46:41;99768.38;;;19.39;100.00
43703;BME280;29304;56.146;40.396;2022-07-09T00:46:51;99766.53;;;19.39;100.00
43703;BME280;29304;56.146;40.396;2022-07-09T00:47:03;99764.16;;;19.36;100.00
43703;BME280;29304;56.146;40.396;2022-07-09T00:47:14;99763.91;;;19.39;100.00
43703;BME280;29304;56.146;40.396;2022-07-09T00:47:24;99769.47;;;19.36;100.00
43703;BME280;29304;56.146;40.396;2022-07-09T00:47:35;99769.19;;;19.39;100.00
43703;BME280;29304;56.146;40.396;2022-07-09T00:47:45;99770.59;;;19.44;100.00
43703;BME280;29304;56.146;40.396;2022-07-09T00:47:56;99766.88;;;19.46;100.00
43703;BME280;29304;56.146;40.396;2022-07-09T00:48:06;99769.38;;;19.48;100.00
43703;BME280;29304;56.146;40.396;2022-07-09T00:48:17;99772.28;;;19.45;100.00
43703;BME280;29304;56.146;40.396;2022-07-09T00:48:27;99766.00;;;19.36;100.00
43703;BME280;29304;56.146;40.396;2022-07-09T00:48:38;99769.47;;;19.36;100.00
43703;BME280;29304;56.146;40.396;2022-07-09T00:48:48;99764.16;;;19.36;100.00
43703;BME280;29304;56.146;40.396;2022-07-09T00:48:59;99772.09;;;19.36;100.00
43703;BME280;29304;56.146;40.396;2022-07-09T00:49:13;99770.56;;;19.34;100.00
43703;BME280;29304;56.146;40.396;2022-07-09T00:49:25;99768.91;;;19.33;100.00
43703;BME280;29304;56.146;40.396;2022-07-09T00:49:42;99775.16;;;19.32;100.00
43703;BME280;29304;56.146;40.396;2022-07-09T00:49:52;99770.13;;;19.29;100.00
43703;BME280;29304;56.146;40.396;2022-07-09T00:50:04;99772.38;;;19.33;100.00
43703;BME280;29304;56.146;40.396;2022-07-09T00:50:15;99766.97;;;19.35;100.00
43703;BME280;29304;56.146;40.396;2022-07-09T00:50:26;99772.09;;;19.36;100.00
43703;BME280;29304;56.146;40.396;2022-07-09T00:50:36;99760.09;;;19.32;100.00
43703;BME280;29304;56.146;40.396;2022-07-09T00:50:47;99761.41;;;19.38;100.00
43703;BME280;29304;56.146;40.396;2022-07-09T00:50:58;99772.56;;;19.42;100.00
43703;BME280;29304;56.146;40.396;2022-07-09T00:51:11;99762.22;;;19.38;100.00
43703;BME280;29304;56.146;40.396;2022-07-09T00:51:22;99764.34;;;19.45;100.00
43703;BME280;29304;56.146;40.396;2022-07-09T00:51:32;99762.66;;;19.44;100.00
43703;BME280;29304;56.146;40.396;2022-07-09T00:51:43;99767.00;;;19.45;100.00
43703;BME280;29304;56.146;40.396;2022-07-09T00:51:54;99764.22;;;19.46;100.00
43703;BME280;29304;56.146;40.396;2022-07-09T00:52:05;99767.56;;;19.48;100.00
43703;BME280;29304;56.146;40.396;2022-07-09T00:52:16;99763.94;;;19.49;100.00
43703;BME280;29304;56.146;40.396;2022-07-09T00:52:29;99762.13;;;19.50;100.00
43703;BME280;29304;56.146;40.396;2022-07-09T00:52:41;99768.84;;;19.54;100.00
43703;BME280;29304;56.146;40.396;2022-07-09T00:52:52;99761.44;;;19.48;100.00
43703;BME280;29304;56.146;40.396;2022-07-09T00:53:03;99758.47;;;19.41;100.00
43703;BME280;29304;56.146;40.396;2022-07-09T00:53:21;99758.88;;;19.36;100.00
43703;BME280;29304;56.146;40.396;2022-07-09T00:53:32;99760.00;;;19.34;100.00
43703;BME280;29304;56.146;40.396;2022-07-09T00:53:44;99768.03;;;19.32;100.00
43703;BME280;29304;56.146;40.396;2022-07-09T00:53:56;99753.66;;;19.25;100.00
43703;BME280;29304;56.146;40.396;2022-07-09T00:54:07;99766.09;;;19.34;100.00
43703;BME280;29304;56.146;40.396;2022-07-09T00:54:17;99766.09;;;19.34;100.00
43703;BME280;29304;56.146;40.396;2022-07-09T00:54:28;99754.81;;;19.32;100.00
43703;BME280;29304;56.146;40.396;2022-07-09T00:54:43;99766.81;;;19.36;100.00
43703;BME280;29304;56.146;40.396;2022-07-09T00:54:54;99762.50;;;19.35;100.00
43703;BME280;29304;56.146;40.396;2022-07-09T00:55:07;99763.34;;;19.36;100.00
43703;BME280;29304;56.146;40.396;2022-07-09T00:55:18;99768.38;;;19.39;100.00
43703;BME280;29304;56.146;40.396;2022-07-09T00:55:28;99761.41;;;19.38;100.00